David Dubois

Olheiro-Chefe - LOSC Lille
23 Set 2027
Quinta-feira
Processo

Personalidade

Adaptabilidade (9) Ambição (5) Controvérsia (18) Lealdade (9) Pressão (20) Profissionalismo (12) Espírito Esportivo (12) Temperamento (12)

Perfil

Estilo de Treinamento Democrático
Licença Nacional B
Determinação 7
Gestão de Pessoas 15
Motivação 15
Disciplina 6
Satisfação no Trabalho
100%
Fadiga
0%
Função Olheiro-Chefe
Salário 112.7K p/s
Contrato 14.03.2030

Desempenho

Comportamento Bom
Eficácia do Treinamento
51%
Desenvolvimento do Jogador
35%
Prevenção de Lesões
70%
Implementação Tática
70%

Eventos Recentes

Participou de uma reunião de recrutamento agora
Participou de uma reunião de recrutamento agora
Participou de uma reunião de recrutamento agora
Recomendou um alvo de transferência agora
Participou de uma reunião de recrutamento agora
Recomendou um alvo de transferência agora
Recomendou um alvo de transferência agora
Observou uma partida 7d atrás

Monitorando agora

155
Jogador Clube Status Habilidade Confiança Observado Última observação Último voto
Warren Zaïre-Emery Paris Saint-Germain Ativo 162 / 158 40% 5 13.09.2027 -
Jaydee Canvot AJ Auxerre Ativo 143 / 139 40% 1 13.09.2027 -
Juan Morán Godoy Cruz Ativo 106 / 108 40% 1 13.09.2027 -
Caleb Yirenkyi Coventry City Ativo 145 / 141 40% 3 12.09.2027 -
Ayden Heaven Luton Town Ativo 144 / 151 40% 1 12.09.2027 -
Josh King Chelsea Ativo 142 / 155 40% 1 10.09.2027 -
Luka Vušković Manchester United Ativo 144 / 152 40% 1 10.09.2027 -
Archie Gray Derby County Ativo 150 / 156 40% 1 10.09.2027 -
Julián Bazán Philadelphia Union Ativo 109 / 121 40% 1 07.09.2027 -
Veljko Milosavljević Aston Villa Ativo 138 / 143 40% 1 07.09.2027 -
José Cavadia Aguilas Doradas Ativo 109 / 109 40% 1 06.09.2027 -
Jan Virgili Club Brugge Ativo 132 / 143 40% 2 03.09.2027 -
Cundo Leicester City Ativo 129 / 144 40% 1 03.09.2027 -
Diogo Guzmán Montevideo City Torque Ativo 107 / 125 40% 1 03.09.2027 -
Shion Shinkawa Sint-Truiden Ativo 105 / 118 40% 1 23.08.2027 -
Noah Streit CF Montreal Ativo 115 / 123 40% 1 23.08.2027 -
Adriano Jagušić Panathinaikos Perdido 132 / 143 40% 1 23.08.2027 -
Óscar De Marcos Paris Saint-Germain Perdido 138 / 134 72% 1 16.08.2027 -
Myles Lewis-Skelly Birmingham Ativo 157 / 155 40% 1 16.08.2027 -
Victor Castillo Ceará Ativo 134 / 133 40% 1 16.08.2027 -
Gonçalo Oliveira Benfica Ativo 112 / 118 40% 1 09.08.2027 -
Baran Gezek Alanyaspor Ativo 103 / 111 40% 1 09.08.2027 -
Jesús Rodríguez Como Ativo 142 / 149 40% 1 07.07.2027 -
Shea Lacey Wolverhampton Ativo 131 / 138 40% 1 07.07.2027 -
Jan Bürger Gillingham Ativo 117 / 126 40% 2 03.07.2027 -
André Miranda Porto Ativo 100 / 115 40% 1 03.07.2027 -
Lander Astiazarán Real Sociedad Ativo 107 / 114 40% 2 01.07.2027 -
Othmane Maamma Watford Ativo 123 / 128 40% 2 01.07.2027 -
Ben Gannon Doak Bournemouth Ativo 142 / 153 40% 1 28.06.2027 -
Assane Diao Lazio Ativo 142 / 152 40% 11 21.06.2027 -
Tyreece Campbell Charlton Athletic Ativo 115 / 126 40% 2 21.06.2027 -
Shahriar Dejagah Tractor Negociando 122 / 136 40% 2 21.06.2027 -
Malik Mothersille Stockport County Perdido 120 / 113 40% 2 14.06.2027 -
Cristian Cásseres Toulouse FC Ativo 132 / 128 69% 1 14.06.2027 Aprovar
Stefanos Tzimas Brighton Ativo 140 / 147 40% 1 14.06.2027 -
Gianluca Prestianni Benfica Ativo 136 / 138 40% 1 05.06.2027 -
Jayden Addai Como Ativo 136 / 142 40% 1 05.06.2027 -
Christos Mouzakitis Hull City Ativo 132 / 132 40% 1 05.06.2027 -
Yussif Saidu Zaragoza Ativo 124 / 133 40% 1 03.06.2027 -
Thomas Jørgensen Toulouse FC Ativo 123 / 140 40% 1 03.06.2027 -
Samir El Mourabet RC Strasbourg Ativo 118 / 127 40% 1 02.06.2027 -
Mfundo Vilakazi Kaizer Chiefs Ativo 112 / 112 40% 1 02.06.2027 -
Ethan Williams Peterborough United Ativo 120 / 117 40% 1 02.06.2027 -
Jakub Kiwior Everton Ativo 156 / 156 93% 1 01.06.2027 Aprovar
Facundo Torres LOSC Lille Negociando 134 / 134 67% 1 01.06.2027 -
Khvicha Kvaratskhelia Paris Saint-Germain Ativo 165 / 165 68% 1 01.06.2027 Aprovar
Georginio Rutter Brighton Ativo 143 / 150 40% 8 30.05.2027 -
Sofiane Diop OGC Nice Ativo 151 / 137 40% 5 30.05.2027 -
Francisco Conceição Juventus Ativo 165 / 161 40% 5 30.05.2027 -
Thiago Brentford Ativo 153 / 153 40% 8 28.05.2027 -
Razvan Balasa Crvena Zvezda Ativo 142 / 146 40% 9 28.05.2027 -
Dominic Solanke Tottenham Ativo 153 / 153 40% 8 28.05.2027 -
Kenan Yıldız Juventus Ativo 160 / 159 40% 5 27.05.2027 -
Gonçalo Ramos AC Milan Ativo 155 / 155 40% 2 27.05.2027 -
Amine Gouiri Olympique de Marseille Ativo 147 / 135 40% 5 26.05.2027 -
Randal Kolo Muani Juventus Ativo 151 / 147 40% 3 25.05.2027 -
Ismaïla Sarr Crystal Palace Ativo 154 / 145 40% 6 24.05.2027 -
Steven Bergwijn Al-Ittihad Ativo 149 / 135 40% 5 23.05.2027 -
Marcus Rashford Manchester United Ativo 160 / 154 40% 2 22.05.2027 -
Luis Suárez Chelsea Ativo 159 / 149 40% 4 21.05.2027 -
Santiago Castro AS Roma Ativo 153 / 156 40% 5 20.05.2027 -
Nikola Vlašić Torino Ativo 141 / 147 40% 2 20.05.2027 -
Hugo Ekitiké Liverpool Ativo 166 / 161 40% 8 19.05.2027 -
Viktor Gyökeres Arsenal Ativo 152 / 152 40% 2 19.05.2027 -
Donyell Malen AS Roma Ativo 153 / 145 40% 1 19.05.2027 -
Yoan Bonny Inter Ativo 146 / 154 40% 5 18.05.2027 -
Ansu Fati Monaco Ativo 139 / 137 40% 2 18.05.2027 -
Dango Ouattara Brentford Ativo 145 / 149 40% 8 16.05.2027 -
Kevin Fulham Ativo 156 / 156 40% 4 16.05.2027 -
Jadon Sancho Manchester United Ativo 149 / 144 40% 2 16.05.2027 -
Matthis Abline Monaco Ativo 128 / 130 40% 1 15.05.2027 -
Isa Sakamoto Westerlo Ativo 117 / 118 40% 1 15.05.2027 -
Marezi Portsmouth Ativo 126 / 122 40% 1 14.05.2027 -
Rafiu Durosinmi Racing Genk Ativo 129 / 124 40% 1 14.05.2027 -
Kai Havertz Arsenal Ativo 163 / 157 40% 9 11.05.2027 -
Gonzalo Fulham Ativo 140 / 152 40% 3 11.05.2027 -
Joaquín Panichelli Le Havre AC Ativo 144 / 148 40% 2 11.05.2027 -
Matt O'Riley Brighton Ativo 150 / 146 40% 4 11.05.2027 -
Vitinha Paris Saint-Germain Ativo 182 / 170 40% 4 11.05.2027 -
Tommy Conway Middlesbrough Ativo 131 / 130 40% 1 11.05.2027 -
Roberto Fernández Braga Ativo 144 / 136 40% 1 11.05.2027 -
João Simões Sporting CP Ativo 133 / 142 40% 1 07.05.2027 -
Toni Tamarit Alverca Ativo 109 / 128 40% 1 07.05.2027 -
Riley Owen Trento Ativo 104 / 112 40% 1 07.05.2027 -
Nicolas Jackson Aston Villa Ativo 145 / 151 40% 6 05.05.2027 -
Federico Chiesa Liverpool Ativo 151 / 149 40% 1 05.05.2027 -
Giacomo Raspadori Atalanta Ativo 143 / 145 40% 7 02.05.2027 -
Christ Inao Oulaï Fiorentina Ativo 128 / 132 40% 1 02.05.2027 -
Alpha Touré FC Metz Ativo 123 / 117 40% 1 02.05.2027 -
Mateo Retegui Tottenham Ativo 160 / 153 40% 1 02.05.2027 -
Callum Hudson-Odoi Nottingham Forest Ativo 149 / 152 40% 2 01.05.2027 -
Matías Soulé AS Roma Ativo 155 / 161 40% 7 01.05.2027 -
Jacob Ramsey Newcastle United Ativo 152 / 147 40% 3 01.05.2027 -
Adam Wharton Crystal Palace Ativo 158 / 156 40% 3 21.04.2027 -
Xavi Simons Tottenham Ativo 164 / 152 40% 7 21.04.2027 -
João Neves Paris Saint-Germain Ativo 167 / 176 40% 3 19.04.2027 -
Martín Tejón Maritimo Ativo 125 / 121 40% 1 16.04.2027 -
Maghnes Akliouche Paris Saint-Germain Ativo 149 / 151 40% 3 11.04.2027 -
Jean-Philippe Mateta Crystal Palace Ativo 145 / 151 40% 1 11.04.2027 -
Nicolò Tresoldi Club Brugge Ativo 131 / 140 40% 3 07.04.2027 -
Aral Şimşir Trabzonspor Ativo 119 / 131 40% 1 07.04.2027 -
Curtis Jones Inter Ativo 161 / 155 40% 3 04.04.2027 -
Amadou Onana Aston Villa Ativo 162 / 149 40% 2 04.04.2027 -
Rémi Lemoine Chamois Niortais Ativo 165 / 164 40% 7 03.04.2027 Observar
Geny Sporting CP Ativo 146 / 141 40% 2 03.04.2027 Mais informações
Mats Wieffer Brighton Ativo 150 / 141 40% 2 03.04.2027 -
Fabrizio Sartori Leon Ativo 105 / 126 40% 1 03.04.2027 -
Borja Sainz Fiorentina Ativo 145 / 142 40% 3 01.04.2027 -
Mikkel Damsgaard Brentford Ativo 146 / 146 40% 2 01.04.2027 -
Amine Adli Bournemouth Ativo 146 / 146 40% 3 31.03.2027 -
Carlos Alcaraz Everton Ativo 143 / 147 40% 1 30.03.2027 -
Christian Tielemans KV Oostende Ativo 137 / 138 40% 3 29.03.2027 -
Yeremy Pino Crystal Palace Ativo 143 / 156 40% 3 29.03.2027 -
Tyler Morton Olympique Lyonnais Ativo 144 / 151 40% 2 29.03.2027 -
Yehor Yarmoliuk Brentford Ativo 153 / 153 40% 1 28.03.2027 -
João Pedro Chelsea Ativo 160 / 157 40% 6 27.03.2027 -
Alexis Saelemaekers AC Milan Ativo 156 / 154 40% 2 27.03.2027 -
Ilyas Ansah Hull City Ativo 137 / 139 40% 1 27.03.2027 -
Richard Koné Queens Park Rangers Ativo 130 / 127 40% 1 26.03.2027 -
Dom Ballard Leyton Orient Ativo 123 / 120 40% 1 26.03.2027 -
Amad Manchester United Ativo 147 / 158 40% 3 25.03.2027 -
Miloš Kerkez Liverpool Ativo 158 / 160 40% 3 25.03.2027 -
Vanderson Monaco Ativo 144 / 149 40% 3 22.03.2027 -
Quinten Timber Crystal Palace Ativo 144 / 155 40% 2 22.03.2027 -
Erick Sánchez OGC Nice Ativo 138 / 147 40% 4 21.03.2027 -
Micky van de Ven Tottenham Ativo 151 / 159 40% 1 20.03.2027 -
Joe Gelhardt Hull City Ativo 127 / 140 40% 1 20.03.2027 -
Abu Kamara Portsmouth Ativo 118 / 126 40% 1 20.03.2027 -
Tino Livramento Newcastle United Ativo 151 / 159 40% 4 18.03.2027 -
Carlos Vicente Birmingham Ativo 137 / 147 40% 2 14.03.2027 -
Kevin Vazquez Cruz Azul Ativo 129 / 137 40% 1 13.03.2027 -
Joaquin Seys Club Brugge Ativo 136 / 133 40% 1 13.03.2027 -
Bryan Mbeumo Manchester United Ativo 162 / 151 40% 4 10.03.2027 -
Bradley Barcola Liverpool Ativo 167 / 165 40% 3 05.03.2027 -
Nico González Newcastle United Ativo 166 / 166 40% 1 02.03.2027 Mais informações
Ryan Sessegnon Fulham Ativo 152 / 141 40% 2 23.02.2027 -
Barış Alper Yılmaz Galatasaray Ativo 156 / 157 40% 2 17.02.2027 -
Crysencio Summerville Al-Hilal Ativo 153 / 137 40% 2 09.02.2027 -
Óscar Mingueza Crystal Palace Ativo 154 / 155 40% 1 05.02.2027 -
Himad Abdelli Olympique de Marseille Ativo 143 / 136 40% 1 13.01.2027 -
Vangelis Pavlidis Twente Negociando 152 / 152 90% 1 01.01.2027 -
Luiz Henrique West Ham United Ativo 142 / 143 68% 1 01.01.2027 Aprovar
Gabriel Martinelli Brighton Ativo 166 / 167 40% 3 28.09.2026 -
Folarin Balogun Monaco Ativo 141 / 130 40% 1 27.09.2026 Mais informações
Mohammed Kudus Tottenham Ativo 155 / 158 40% 2 26.09.2026 -
Matías Fernández-Pardo Newcastle United Ativo 133 / 142 40% 1 24.09.2026 -
Matheus Cunha Manchester United Ativo 153 / 158 40% 2 22.09.2026 -
Cody Gakpo Liverpool Ativo 160 / 153 40% 1 22.09.2026 -
Joshua Zirkzee Manchester United Ativo 146 / 149 40% 1 21.09.2026 -
Dwight McNeil Crystal Palace Ativo 144 / 137 40% 1 20.09.2026 -
Eddie Nketiah Crystal Palace Ativo 143 / 139 40% 1 19.09.2026 -
Morgan Rogers Chelsea Ativo 156 / 165 40% 2 13.09.2026 -
Désiré Doué Paris Saint-Germain Ativo 163 / 156 40% 1 01.08.2026 -
Ousmane Dembélé Paris Saint-Germain Ativo 184 / 174 40% 1 01.08.2026 -
Moisés Caicedo Chelsea Ativo 169 / 176 40% 1 01.08.2026 -